sensor_id;sensor_type;location;lat;lon;timestamp;pressure;altitude;pressure_sealevel;temperature;humidity
3096;BME280;1558;42.700;23.360;2023-07-28T00:00:16;95382.13;;;16.83;68.11
3096;BME280;1558;42.700;23.360;2023-07-28T00:02:44;95371.41;;;16.67;68.31
3096;BME280;1558;42.700;23.360;2023-07-28T00:05:12;95379.06;;;16.84;68.38
3096;BME280;1558;42.700;23.360;2023-07-28T00:07:40;95381.56;;;16.97;68.28
3096;BME280;1558;42.700;23.360;2023-07-28T00:10:10;95384.50;;;16.84;68.53
3096;BME280;1558;42.700;23.360;2023-07-28T00:12:39;95380.41;;;16.71;68.91
3096;BME280;1558;42.700;23.360;2023-07-28T00:15:08;95384.41;;;16.77;69.68
3096;BME280;1558;42.700;23.360;2023-07-28T00:17:36;95323.03;;;16.57;69.94
3096;BME280;1558;42.700;23.360;2023-07-28T00:20:05;95330.91;;;16.92;69.21
3096;BME280;1558;42.700;23.360;2023-07-28T00:22:34;95357.66;;;16.86;68.27
3096;BME280;1558;42.700;23.360;2023-07-28T00:25:02;95304.69;;;16.84;69.73
3096;BME280;1558;42.700;23.360;2023-07-28T00:27:30;95326.25;;;16.96;68.89
3096;BME280;1558;42.700;23.360;2023-07-28T00:30:00;95362.34;;;17.16;68.17
3096;BME280;1558;42.700;23.360;2023-07-28T00:32:28;95367.63;;;17.35;68.72
3096;BME280;1558;42.700;23.360;2023-07-28T00:34:56;95299.66;;;16.86;67.66
3096;BME280;1558;42.700;23.360;2023-07-28T00:37:24;95366.63;;;16.87;67.96
3096;BME280;1558;42.700;23.360;2023-07-28T00:39:52;95368.59;;;16.60;68.45
3096;BME280;1558;42.700;23.360;2023-07-28T00:42:20;95375.41;;;16.47;69.52
3096;BME280;1558;42.700;23.360;2023-07-28T00:44:48;95374.75;;;16.31;69.80
3096;BME280;1558;42.700;23.360;2023-07-28T00:47:17;95379.16;;;16.16;70.67
3096;BME280;1558;42.700;23.360;2023-07-28T00:49:45;95374.81;;;16.12;71.09
3096;BME280;1558;42.700;23.360;2023-07-28T00:52:13;95374.00;;;16.08;71.36
3096;BME280;1558;42.700;23.360;2023-07-28T00:54:41;95382.50;;;16.29;71.82
3096;BME280;1558;42.700;23.360;2023-07-28T00:57:10;95374.59;;;16.47;71.48
3096;BME280;1558;42.700;23.360;2023-07-28T00:59:38;95367.13;;;16.40;71.39
3096;BME280;1558;42.700;23.360;2023-07-28T01:02:06;95370.38;;;16.49;70.69
3096;BME280;1558;42.700;23.360;2023-07-28T01:04:35;95368.13;;;16.06;71.10
3096;BME280;1558;42.700;23.360;2023-07-28T01:07:09;95378.41;;;16.16;71.81
3096;BME280;1558;42.700;23.360;2023-07-28T01:09:44;95313.94;;;15.71;71.75
3096;BME280;1558;42.700;23.360;2023-07-28T01:12:14;95364.63;;;15.83;72.25
3096;BME280;1558;42.700;23.360;2023-07-28T01:14:43;95383.69;;;15.83;72.45
3096;BME280;1558;42.700;23.360;2023-07-28T01:17:11;95380.53;;;15.81;72.64
3096;BME280;1558;42.700;23.360;2023-07-28T01:19:40;95382.47;;;15.80;73.21
3096;BME280;1558;42.700;23.360;2023-07-28T01:22:27;95388.38;;;15.63;73.35
3096;BME280;1558;42.700;23.360;2023-07-28T01:25:02;95325.97;;;15.28;74.31
3096;BME280;1558;42.700;23.360;2023-07-28T01:27:36;95371.50;;;15.77;74.41
3096;BME280;1558;42.700;23.360;2023-07-28T01:30:09;95388.69;;;15.81;73.39
3096;BME280;1558;42.700;23.360;2023-07-28T01:32:38;95340.56;;;15.43;74.01
3096;BME280;1558;42.700;23.360;2023-07-28T01:35:07;95387.84;;;15.77;73.81
3096;BME280;1558;42.700;23.360;2023-07-28T01:37:35;95328.00;;;15.35;73.76
3096;BME280;1558;42.700;23.360;2023-07-28T01:40:04;95367.56;;;15.32;74.11
3096;BME280;1558;42.700;23.360;2023-07-28T01:42:32;95379.94;;;15.30;74.93
3096;BME280;1558;42.700;23.360;2023-07-28T01:45:02;95356.84;;;15.20;75.51
3096;BME280;1558;42.700;23.360;2023-07-28T01:47:30;95375.16;;;15.62;75.93
3096;BME280;1558;42.700;23.360;2023-07-28T01:49:59;95372.09;;;15.67;74.91
3096;BME280;1558;42.700;23.360;2023-07-28T01:52:27;95374.66;;;15.79;74.75
3096;BME280;1558;42.700;23.360;2023-07-28T01:54:55;95377.31;;;15.98;74.61
3096;BME280;1558;42.700;23.360;2023-07-28T01:57:23;95344.31;;;15.54;74.48
3096;BME280;1558;42.700;23.360;2023-07-28T01:59:54;95377.06;;;15.84;75.13
3096;BME280;1558;42.700;23.360;2023-07-28T02:02:23;95369.41;;;15.89;74.49
3096;BME280;1558;42.700;23.360;2023-07-28T02:04:51;95364.97;;;15.81;74.52
3096;BME280;1558;42.700;23.360;2023-07-28T02:07:19;95359.88;;;16.02;75.11
3096;BME280;1558;42.700;23.360;2023-07-28T02:09:47;95352.34;;;16.41;73.82
3096;BME280;1558;42.700;23.360;2023-07-28T02:12:15;95354.16;;;16.56;72.23
3096;BME280;1558;42.700;23.360;2023-07-28T02:14:43;95303.44;;;15.96;71.55
3096;BME280;1558;42.700;23.360;2023-07-28T02:17:11;95373.13;;;16.26;71.79
3096;BME280;1558;42.700;23.360;2023-07-28T02:19:40;95362.38;;;16.11;72.31
3096;BME280;1558;42.700;23.360;2023-07-28T02:22:08;95376.72;;;16.08;72.22
3096;BME280;1558;42.700;23.360;2023-07-28T02:24:38;95384.09;;;16.07;73.14
3096;BME280;1558;42.700;23.360;2023-07-28T02:27:06;95378.25;;;16.32;72.81
3096;BME280;1558;42.700;23.360;2023-07-28T02:29:34;95372.91;;;16.12;72.09
3096;BME280;1558;42.700;23.360;2023-07-28T02:32:02;95388.31;;;16.05;73.19
3096;BME280;1558;42.700;23.360;2023-07-28T02:34:30;95359.44;;;15.97;73.39
3096;BME280;1558;42.700;23.360;2023-07-28T02:36:59;95386.88;;;16.11;73.41
3096;BME280;1558;42.700;23.360;2023-07-28T02:39:28;95364.00;;;15.93;73.21
3096;BME280;1558;42.700;23.360;2023-07-28T02:41:56;95383.97;;;16.00;73.39
3096;BME280;1558;42.700;23.360;2023-07-28T02:44:24;95357.63;;;16.04;74.08
3096;BME280;1558;42.700;23.360;2023-07-28T02:46:53;95327.09;;;15.92;73.31
3096;BME280;1558;42.700;23.360;2023-07-28T02:49:21;95346.00;;;15.85;73.10
3096;BME280;1558;42.700;23.360;2023-07-28T02:51:49;95376.66;;;15.82;73.18
3096;BME280;1558;42.700;23.360;2023-07-28T02:54:18;95379.78;;;15.84;74.01
3096;BME280;1558;42.700;23.360;2023-07-28T02:56:46;95367.44;;;15.67;74.42
3096;BME280;1558;42.700;23.360;2023-07-28T02:59:14;95374.19;;;15.73;74.38
3096;BME280;1558;42.700;23.360;2023-07-28T03:01:42;95380.47;;;15.54;75.10
3096;BME280;1558;42.700;23.360;2023-07-28T03:04:10;95385.09;;;15.77;75.93
3096;BME280;1558;42.700;23.360;2023-07-28T03:06:38;95384.66;;;15.71;75.53
3096;BME280;1558;42.700;23.360;2023-07-28T03:09:06;95389.66;;;15.92;75.06
3096;BME280;1558;42.700;23.360;2023-07-28T03:11:36;95383.50;;;15.95;74.98
3096;BME280;1558;42.700;23.360;2023-07-28T03:14:04;95388.53;;;15.74;73.72
3096;BME280;1558;42.700;23.360;2023-07-28T03:16:32;95389.09;;;15.60;74.48
3096;BME280;1558;42.700;23.360;2023-07-28T03:19:01;95400.06;;;15.44;74.79
3096;BME280;1558;42.700;23.360;2023-07-28T03:21:29;95401.75;;;15.33;75.57
3096;BME280;1558;42.700;23.360;2023-07-28T03:23:57;95381.16;;;15.13;76.26
3096;BME280;1558;42.700;23.360;2023-07-28T03:26:25;95408.34;;;15.13;76.69
3096;BME280;1558;42.700;23.360;2023-07-28T03:28:55;95396.31;;;15.14;77.04
3096;BME280;1558;42.700;23.360;2023-07-28T03:31:23;95374.38;;;14.84;77.54
3096;BME280;1558;42.700;23.360;2023-07-28T03:33:51;95391.72;;;14.80;77.89
3096;BME280;1558;42.700;23.360;2023-07-28T03:36:19;95406.16;;;14.84;78.65
3096;BME280;1558;42.700;23.360;2023-07-28T03:38:47;95392.50;;;14.61;78.45
3096;BME280;1558;42.700;23.360;2023-07-28T03:41:16;95411.88;;;14.79;78.83
3096;BME280;1558;42.700;23.360;2023-07-28T03:43:44;95343.81;;;14.53;78.83
3096;BME280;1558;42.700;23.360;2023-07-28T03:46:13;95419.34;;;15.01;78.85
3096;BME280;1558;42.700;23.360;2023-07-28T03:48:42;95422.91;;;15.05;78.52
3096;BME280;1558;42.700;23.360;2023-07-28T03:51:10;95421.69;;;15.03;78.92
3096;BME280;1558;42.700;23.360;2023-07-28T03:53:38;95395.38;;;14.87;78.01
3096;BME280;1558;42.700;23.360;2023-07-28T03:56:06;95414.56;;;14.95;78.24
3096;BME280;1558;42.700;23.360;2023-07-28T03:58:34;95416.47;;;14.94;78.86
3096;BME280;1558;42.700;23.360;2023-07-28T04:01:02;95418.00;;;15.11;78.60
3096;BME280;1558;42.700;23.360;2023-07-28T04:03:35;95411.56;;;15.19;78.06
3096;BME280;1558;42.700;23.360;2023-07-28T04:06:09;95395.81;;;15.09;78.03
3096;BME280;1558;42.700;23.360;2023-07-28T04:08:37;95416.50;;;15.13;78.03
3096;BME280;1558;42.700;23.360;2023-07-28T04:11:05;95410.50;;;15.23;77.49
3096;BME280;1558;42.700;23.360;2023-07-28T04:13:33;95419.75;;;15.03;77.51
3096;BME280;1558;42.700;23.360;2023-07-28T04:16:01;95400.03;;;14.87;78.49
3096;BME280;1558;42.700;23.360;2023-07-28T04:18:30;95427.88;;;15.19;78.64
3096;BME280;1558;42.700;23.360;2023-07-28T04:20:59;95418.38;;;15.28;78.47
3096;BME280;1558;42.700;23.360;2023-07-28T04:23:27;95422.88;;;15.40;77.31
3096;BME280;1558;42.700;23.360;2023-07-28T04:25:57;95409.41;;;15.09;77.65
3096;BME280;1558;42.700;23.360;2023-07-28T04:28:25;95416.34;;;15.25;77.92
3096;BME280;1558;42.700;23.360;2023-07-28T04:30:53;95419.34;;;15.39;77.62
3096;BME280;1558;42.700;23.360;2023-07-28T04:33:21;95426.09;;;15.45;77.84
3096;BME280;1558;42.700;23.360;2023-07-28T04:35:49;95406.84;;;15.35;77.64
3096;BME280;1558;42.700;23.360;2023-07-28T04:38:18;95334.69;;;14.99;77.09
3096;BME280;1558;42.700;23.360;2023-07-28T04:40:46;95410.19;;;15.67;76.95
3096;BME280;1558;42.700;23.360;2023-07-28T04:43:14;95422.81;;;15.97;76.92
3096;BME280;1558;42.700;23.360;2023-07-28T04:45:44;95398.66;;;15.96;76.54
3096;BME280;1558;42.700;23.360;2023-07-28T04:48:12;95392.91;;;16.01;76.06
3096;BME280;1558;42.700;23.360;2023-07-28T04:50:40;95365.47;;;15.87;75.84
3096;BME280;1558;42.700;23.360;2023-07-28T04:53:08;95408.03;;;16.21;75.85
3096;BME280;1558;42.700;23.360;2023-07-28T04:55:37;95421.69;;;16.47;75.47
3096;BME280;1558;42.700;23.360;2023-07-28T04:58:08;95419.28;;;16.95;74.54
3096;BME280;1558;42.700;23.360;2023-07-28T05:00:36;95426.69;;;17.90;72.49
3096;BME280;1558;42.700;23.360;2023-07-28T05:03:04;95428.47;;;18.53;69.94
3096;BME280;1558;42.700;23.360;2023-07-28T05:05:33;95391.88;;;18.68;67.07
3096;BME280;1558;42.700;23.360;2023-07-28T05:08:01;95419.44;;;19.03;65.18
3096;BME280;1558;42.700;23.360;2023-07-28T05:10:29;95427.00;;;19.27;64.55
3096;BME280;1558;42.700;23.360;2023-07-28T05:12:58;95424.59;;;19.15;64.02
3096;BME280;1558;42.700;23.360;2023-07-28T05:15:26;95422.16;;;19.03;63.79
3096;BME280;1558;42.700;23.360;2023-07-28T05:17:54;95424.97;;;19.17;64.00
3096;BME280;1558;42.700;23.360;2023-07-28T05:20:22;95428.56;;;19.35;63.69
3096;BME280;1558;42.700;23.360;2023-07-28T05:22:50;95418.63;;;19.82;62.66
3096;BME280;1558;42.700;23.360;2023-07-28T05:25:18;95416.78;;;20.32;60.81
3096;BME280;1558;42.700;23.360;2023-07-28T05:27:46;95416.72;;;21.20;58.31
3096;BME280;1558;42.700;23.360;2023-07-28T05:30:16;95421.06;;;22.04;55.78
3096;BME280;1558;42.700;23.360;2023-07-28T05:32:44;95425.03;;;21.99;54.06
3096;BME280;1558;42.700;23.360;2023-07-28T05:35:13;95426.63;;;21.93;53.83
3096;BME280;1558;42.700;23.360;2023-07-28T05:37:42;95429.53;;;22.31;53.09
3096;BME280;1558;42.700;23.360;2023-07-28T05:40:12;95424.56;;;22.15;53.44
3096;BME280;1558;42.700;23.360;2023-07-28T05:42:40;95397.41;;;22.24;52.64
3096;BME280;1558;42.700;23.360;2023-07-28T05:45:09;95422.97;;;22.17;53.62
3096;BME280;1558;42.700;23.360;2023-07-28T05:47:40;95419.06;;;22.15;53.89
3096;BME280;1558;42.700;23.360;2023-07-28T05:50:08;95367.78;;;21.91;54.08
3096;BME280;1558;42.700;23.360;2023-07-28T05:52:36;95406.44;;;22.76;53.43
3096;BME280;1558;42.700;23.360;2023-07-28T05:55:06;95413.44;;;23.21;51.92
3096;BME280;1558;42.700;23.360;2023-07-28T05:57:34;95408.97;;;23.34;51.58
3096;BME280;1558;42.700;23.360;2023-07-28T06:00:02;95371.63;;;23.33;49.67
3096;BME280;1558;42.700;23.360;2023-07-28T06:02:31;95406.38;;;23.88;49.24
3096;BME280;1558;42.700;23.360;2023-07-28T06:05:00;95408.50;;;24.03;47.52
3096;BME280;1558;42.700;23.360;2023-07-28T06:07:28;95406.75;;;23.60;48.73
3096;BME280;1558;42.700;23.360;2023-07-28T06:09:57;95404.56;;;24.08;47.71
3096;BME280;1558;42.700;23.360;2023-07-28T06:12:26;95384.31;;;23.91;47.30
3096;BME280;1558;42.700;23.360;2023-07-28T06:14:54;95391.16;;;24.10;47.89
3096;BME280;1558;42.700;23.360;2023-07-28T06:17:22;95394.53;;;24.21;47.98
3096;BME280;1558;42.700;23.360;2023-07-28T06:19:50;95395.81;;;23.83;46.93
3096;BME280;1558;42.700;23.360;2023-07-28T06:22:20;95396.44;;;23.94;47.66
3096;BME280;1558;42.700;23.360;2023-07-28T06:24:48;95389.56;;;24.09;47.10
3096;BME280;1558;42.700;23.360;2023-07-28T06:27:16;95392.25;;;24.89;46.56
3096;BME280;1558;42.700;23.360;2023-07-28T06:29:45;95387.72;;;23.99;46.41
3096;BME280;1558;42.700;23.360;2023-07-28T06:32:13;95376.91;;;24.15;46.38
3096;BME280;1558;42.700;23.360;2023-07-28T06:34:42;95392.69;;;24.11;46.77
3096;BME280;1558;42.700;23.360;2023-07-28T06:37:10;95395.13;;;24.82;46.50
3096;BME280;1558;42.700;23.360;2023-07-28T06:39:40;95346.72;;;25.01;45.17
3096;BME280;1558;42.700;23.360;2023-07-28T06:42:09;95380.34;;;24.46;44.69
3096;BME280;1558;42.700;23.360;2023-07-28T06:44:38;95384.06;;;24.09;45.90
3096;BME280;1558;42.700;23.360;2023-07-28T06:47:07;95382.53;;;24.58;44.98
3096;BME280;1558;42.700;23.360;2023-07-28T06:49:35;95378.09;;;25.10;43.99
3096;BME280;1558;42.700;23.360;2023-07-28T06:52:04;95383.72;;;25.66;43.56
3096;BME280;1558;42.700;23.360;2023-07-28T06:54:33;95388.63;;;25.35;42.58
3096;BME280;1558;42.700;23.360;2023-07-28T06:57:03;95386.34;;;25.53;42.92
3096;BME280;1558;42.700;23.360;2023-07-28T06:59:33;95388.56;;;25.97;42.58
3096;BME280;1558;42.700;23.360;2023-07-28T07:02:01;95374.69;;;25.81;42.32
3096;BME280;1558;42.700;23.360;2023-07-28T07:04:29;95389.53;;;25.51;42.20
3096;BME280;1558;42.700;23.360;2023-07-28T07:06:57;95383.16;;;25.54;41.98
3096;BME280;1558;42.700;23.360;2023-07-28T07:09:26;95384.97;;;25.81;41.57
3096;BME280;1558;42.700;23.360;2023-07-28T07:11:54;95382.34;;;26.29;41.67
3096;BME280;1558;42.700;23.360;2023-07-28T07:14:26;95385.13;;;26.09;41.06
3096;BME280;1558;42.700;23.360;2023-07-28T07:16:55;95387.09;;;26.61;40.28
3096;BME280;1558;42.700;23.360;2023-07-28T07:19:23;95347.84;;;26.34;41.16
3096;BME280;1558;42.700;23.360;2023-07-28T07:21:51;95388.13;;;27.15;40.42
3096;BME280;1558;42.700;23.360;2023-07-28T07:24:19;95382.25;;;26.16;41.01
3096;BME280;1558;42.700;23.360;2023-07-28T07:26:48;95349.75;;;26.53;41.03
3096;BME280;1558;42.700;23.360;2023-07-28T07:29:17;95387.56;;;26.59;41.22
3096;BME280;1558;42.700;23.360;2023-07-28T07:31:47;95370.84;;;26.63;41.26
3096;BME280;1558;42.700;23.360;2023-07-28T07:34:15;95386.78;;;27.65;40.37
3096;BME280;1558;42.700;23.360;2023-07-28T07:36:45;95390.28;;;27.81;39.54
3096;BME280;1558;42.700;23.360;2023-07-28T07:39:13;95396.00;;;28.53;38.06
3096;BME280;1558;42.700;23.360;2023-07-28T07:41:42;95381.69;;;28.80;37.28
3096;BME280;1558;42.700;23.360;2023-07-28T07:44:10;95394.03;;;27.87;37.10
3096;BME280;1558;42.700;23.360;2023-07-28T07:46:39;95377.50;;;26.33;39.69
3096;BME280;1558;42.700;23.360;2023-07-28T07:49:11;95391.28;;;26.85;39.80
3096;BME280;1558;42.700;23.360;2023-07-28T07:51:40;95378.03;;;27.66;38.60
3096;BME280;1558;42.700;23.360;2023-07-28T07:54:08;95369.78;;;28.79;36.46
3096;BME280;1558;42.700;23.360;2023-07-28T07:56:36;95365.75;;;28.93;36.44
3096;BME280;1558;42.700;23.360;2023-07-28T07:59:04;95380.75;;;29.64;35.87
3096;BME280;1558;42.700;23.360;2023-07-28T08:01:32;95388.44;;;28.92;35.24
3096;BME280;1558;42.700;23.360;2023-07-28T08:04:01;95403.34;;;28.47;36.36
3096;BME280;1558;42.700;23.360;2023-07-28T08:06:30;95352.38;;;28.41;36.19
3096;BME280;1558;42.700;23.360;2023-07-28T08:08:59;95376.59;;;28.28;35.72
3096;BME280;1558;42.700;23.360;2023-07-28T08:11:28;95353.81;;;28.71;35.71
3096;BME280;1558;42.700;23.360;2023-07-28T08:13:56;95388.66;;;29.87;34.06
3096;BME280;1558;42.700;23.360;2023-07-28T08:16:24;95374.56;;;28.79;34.26
3096;BME280;1558;42.700;23.360;2023-07-28T08:18:53;95380.22;;;28.88;35.03
3096;BME280;1558;42.700;23.360;2023-07-28T08:21:21;95383.22;;;28.43;35.26
3096;BME280;1558;42.700;23.360;2023-07-28T08:23:51;95379.25;;;28.69;35.57
3096;BME280;1558;42.700;23.360;2023-07-28T08:26:19;95331.78;;;29.45;33.84
3096;BME280;1558;42.700;23.360;2023-07-28T08:28:47;95373.88;;;29.56;33.56
3096;BME280;1558;42.700;23.360;2023-07-28T08:31:15;95371.69;;;29.17;34.11
3096;BME280;1558;42.700;23.360;2023-07-28T08:33:44;95373.56;;;29.97;34.06
3096;BME280;1558;42.700;23.360;2023-07-28T08:36:12;95375.78;;;29.59;33.34
3096;BME280;1558;42.700;23.360;2023-07-28T08:38:40;95358.00;;;29.78;33.94
3096;BME280;1558;42.700;23.360;2023-07-28T08:41:10;95278.97;;;30.37;32.78
3096;BME280;1558;42.700;23.360;2023-07-28T08:43:38;95374.19;;;31.39;32.40
3096;BME280;1558;42.700;23.360;2023-07-28T08:46:08;95358.03;;;30.49;32.74
3096;BME280;1558;42.700;23.360;2023-07-28T08:48:37;95333.78;;;30.58;32.28
3096;BME280;1558;42.700;23.360;2023-07-28T08:51:05;95369.38;;;30.24;33.02
3096;BME280;1558;42.700;23.360;2023-07-28T08:53:35;95355.19;;;30.79;33.09
3096;BME280;1558;42.700;23.360;2023-07-28T08:56:03;95360.06;;;31.24;32.75
3096;BME280;1558;42.700;23.360;2023-07-28T08:58:34;95358.66;;;31.38;31.62
3096;BME280;1558;42.700;23.360;2023-07-28T09:01:02;95354.22;;;31.50;31.72
3096;BME280;1558;42.700;23.360;2023-07-28T09:03:32;95357.63;;;31.44;30.66
3096;BME280;1558;42.700;23.360;2023-07-28T09:06:04;95347.94;;;31.91;31.13
3096;BME280;1558;42.700;23.360;2023-07-28T09:08:35;95339.00;;;31.23;30.54
3096;BME280;1558;42.700;23.360;2023-07-28T09:11:05;95324.72;;;30.85;31.71
3096;BME280;1558;42.700;23.360;2023-07-28T09:13:39;95322.25;;;31.41;31.20
3096;BME280;1558;42.700;23.360;2023-07-28T09:16:18;95330.88;;;31.98;31.10
3096;BME280;1558;42.700;23.360;2023-07-28T09:18:47;95311.03;;;31.96;30.40
3096;BME280;1558;42.700;23.360;2023-07-28T09:21:16;95314.19;;;31.71;30.16
3096;BME280;1558;42.700;23.360;2023-07-28T09:23:45;95312.91;;;30.81;31.48
3096;BME280;1558;42.700;23.360;2023-07-28T09:26:14;95309.44;;;30.41;32.25
3096;BME280;1558;42.700;23.360;2023-07-28T09:28:44;95302.84;;;30.56;32.34
3096;BME280;1558;42.700;23.360;2023-07-28T09:31:13;95302.75;;;30.96;31.36
3096;BME280;1558;42.700;23.360;2023-07-28T09:33:41;95302.22;;;30.61;32.02
3096;BME280;1558;42.700;23.360;2023-07-28T09:36:14;95275.78;;;31.29;31.74
3096;BME280;1558;42.700;23.360;2023-07-28T09:38:43;95287.88;;;32.14;30.73
3096;BME280;1558;42.700;23.360;2023-07-28T09:41:11;95284.69;;;31.97;30.42
3096;BME280;1558;42.700;23.360;2023-07-28T09:43:40;95279.31;;;32.50;29.62
3096;BME280;1558;42.700;23.360;2023-07-28T09:46:13;95274.94;;;32.82;29.35
3096;BME280;1558;42.700;23.360;2023-07-28T09:48:45;95270.25;;;33.26;28.50
3096;BME280;1558;42.700;23.360;2023-07-28T09:51:17;95253.50;;;32.64;28.92
3096;BME280;1558;42.700;23.360;2023-07-28T09:53:56;95262.00;;;32.04;29.22
3096;BME280;1558;42.700;23.360;2023-07-28T09:56:28;95257.16;;;31.63;30.14
3096;BME280;1558;42.700;23.360;2023-07-28T09:58:58;95266.69;;;32.31;29.20
3096;BME280;1558;42.700;23.360;2023-07-28T10:01:28;95250.13;;;32.74;27.97
3096;BME280;1558;42.700;23.360;2023-07-28T10:03:58;95255.97;;;32.62;28.93
3096;BME280;1558;42.700;23.360;2023-07-28T10:06:26;95257.50;;;32.39;28.83
3096;BME280;1558;42.700;23.360;2023-07-28T10:08:56;95251.84;;;32.48;29.16
3096;BME280;1558;42.700;23.360;2023-07-28T10:11:25;95255.59;;;33.46;28.21
3096;BME280;1558;42.700;23.360;2023-07-28T10:13:54;95220.28;;;33.33;27.37
3096;BME280;1558;42.700;23.360;2023-07-28T10:16:31;95247.94;;;33.17;27.83
3096;BME280;1558;42.700;23.360;2023-07-28T10:19:05;95239.69;;;33.81;27.41
3096;BME280;1558;42.700;23.360;2023-07-28T10:21:39;95244.47;;;34.59;26.60
3096;BME280;1558;42.700;23.360;2023-07-28T10:24:07;95240.31;;;34.34;26.44
3096;BME280;1558;42.700;23.360;2023-07-28T10:26:36;95193.66;;;33.82;26.44
3096;BME280;1558;42.700;23.360;2023-07-28T10:29:11;95243.00;;;34.29;26.11
3096;BME280;1558;42.700;23.360;2023-07-28T10:31:54;95125.56;;;32.97;27.17
3096;BME280;1558;42.700;23.360;2023-07-28T10:34:23;95210.47;;;34.51;26.86
3096;BME280;1558;42.700;23.360;2023-07-28T10:37:01;95230.84;;;33.68;27.87
3096;BME280;1558;42.700;23.360;2023-07-28T10:39:29;95177.09;;;33.98;28.02
3096;BME280;1558;42.700;23.360;2023-07-28T10:42:04;95214.63;;;34.21;26.83
3096;BME280;1558;42.700;23.360;2023-07-28T10:44:32;95212.06;;;34.38;26.42
3096;BME280;1558;42.700;23.360;2023-07-28T10:47:07;95212.53;;;34.71;26.23
3096;BME280;1558;42.700;23.360;2023-07-28T10:49:36;95207.50;;;34.75;26.11
3096;BME280;1558;42.700;23.360;2023-07-28T10:52:04;95223.94;;;34.13;26.85
3096;BME280;1558;42.700;23.360;2023-07-28T10:54:34;95156.81;;;33.10;27.01
3096;BME280;1558;42.700;23.360;2023-07-28T10:57:02;95211.88;;;33.19;27.50
3096;BME280;1558;42.700;23.360;2023-07-28T10:59:35;95193.69;;;34.17;27.34
3096;BME280;1558;42.700;23.360;2023-07-28T11:02:05;95148.66;;;34.81;26.27
3096;BME280;1558;42.700;23.360;2023-07-28T11:04:33;95192.81;;;35.06;25.30
3096;BME280;1558;42.700;23.360;2023-07-28T11:07:02;95186.53;;;34.70;26.09
3096;BME280;1558;42.700;23.360;2023-07-28T11:09:30;95193.78;;;34.22;26.40
3096;BME280;1558;42.700;23.360;2023-07-28T11:11:58;95181.88;;;34.27;26.25
3096;BME280;1558;42.700;23.360;2023-07-28T11:14:27;95147.13;;;34.39;25.08
3096;BME280;1558;42.700;23.360;2023-07-28T11:16:56;95172.84;;;34.03;26.03
3096;BME280;1558;42.700;23.360;2023-07-28T11:19:26;95172.63;;;34.41;26.46
3096;BME280;1558;42.700;23.360;2023-07-28T11:21:55;95178.88;;;34.71;26.39
3096;BME280;1558;42.700;23.360;2023-07-28T11:24:25;95182.59;;;35.28;25.64
3096;BME280;1558;42.700;23.360;2023-07-28T11:26:54;95174.84;;;35.75;24.24
3096;BME280;1558;42.700;23.360;2023-07-28T11:29:23;95168.81;;;35.30;24.44
3096;BME280;1558;42.700;23.360;2023-07-28T11:31:52;95159.69;;;35.35;25.24
3096;BME280;1558;42.700;23.360;2023-07-28T11:34:20;95156.28;;;35.26;25.28
3096;BME280;1558;42.700;23.360;2023-07-28T11:36:53;95153.13;;;36.01;25.07
3096;BME280;1558;42.700;23.360;2023-07-28T11:39:22;95142.69;;;36.55;24.13
3096;BME280;1558;42.700;23.360;2023-07-28T11:41:52;95150.63;;;36.14;23.99
3096;BME280;1558;42.700;23.360;2023-07-28T11:44:21;95159.38;;;35.90;24.46
3096;BME280;1558;42.700;23.360;2023-07-28T11:46:52;95140.75;;;36.35;24.67
3096;BME280;1558;42.700;23.360;2023-07-28T11:49:23;95134.72;;;36.48;24.00
3096;BME280;1558;42.700;23.360;2023-07-28T11:51:54;95142.44;;;36.16;24.94
3096;BME280;1558;42.700;23.360;2023-07-28T11:54:26;95141.28;;;36.34;24.73
3096;BME280;1558;42.700;23.360;2023-07-28T11:56:56;95143.97;;;36.12;24.08
3096;BME280;1558;42.700;23.360;2023-07-28T11:59:24;95144.47;;;36.10;24.78
3096;BME280;1558;42.700;23.360;2023-07-28T12:01:54;95119.56;;;36.34;23.89
3096;BME280;1558;42.700;23.360;2023-07-28T12:04:26;95123.72;;;35.34;24.97
3096;BME280;1558;42.700;23.360;2023-07-28T12:07:03;95132.75;;;34.92;25.98
3096;BME280;1558;42.700;23.360;2023-07-28T12:09:47;95129.53;;;34.59;25.83
3096;BME280;1558;42.700;23.360;2023-07-28T12:12:29;95124.91;;;34.76;25.80
3096;BME280;1558;42.700;23.360;2023-07-28T12:15:19;95122.69;;;34.60;25.87
3096;BME280;1558;42.700;23.360;2023-07-28T12:18:18;95108.13;;;34.16;25.86
3096;BME280;1558;42.700;23.360;2023-07-28T12:20:51;95116.38;;;33.40;26.92
3096;BME280;1558;42.700;23.360;2023-07-28T12:23:22;95111.69;;;34.16;27.01
3096;BME280;1558;42.700;23.360;2023-07-28T12:25:56;95094.16;;;34.21;25.96
3096;BME280;1558;42.700;23.360;2023-07-28T12:28:25;95111.28;;;33.88;25.98
3096;BME280;1558;42.700;23.360;2023-07-28T12:30:53;95091.53;;;33.97;25.40
3096;BME280;1558;42.700;23.360;2023-07-28T12:33:23;95095.22;;;34.03;25.84
3096;BME280;1558;42.700;23.360;2023-07-28T12:36:04;95085.69;;;34.56;25.96
3096;BME280;1558;42.700;23.360;2023-07-28T12:38:37;95100.19;;;34.54;26.14
3096;BME280;1558;42.700;23.360;2023-07-28T12:41:08;95079.06;;;33.29;26.36
3096;BME280;1558;42.700;23.360;2023-07-28T12:43:36;95048.41;;;33.20;26.81
3096;BME280;1558;42.700;23.360;2023-07-28T12:46:07;95071.16;;;33.27;26.98
3096;BME280;1558;42.700;23.360;2023-07-28T12:48:37;95052.97;;;33.03;27.51
3096;BME280;1558;42.700;23.360;2023-07-28T12:51:08;95083.69;;;33.61;26.60
3096;BME280;1558;42.700;23.360;2023-07-28T12:53:38;95055.88;;;33.43;27.47
3096;BME280;1558;42.700;23.360;2023-07-28T12:56:07;95080.47;;;33.68;27.22
3096;BME280;1558;42.700;23.360;2023-07-28T12:58:37;95076.75;;;33.42;27.04
3096;BME280;1558;42.700;23.360;2023-07-28T13:01:08;95079.13;;;33.64;26.90
3096;BME280;1558;42.700;23.360;2023-07-28T13:03:38;95074.03;;;33.33;26.56
3096;BME280;1558;42.700;23.360;2023-07-28T13:06:06;95075.44;;;33.08;26.96
3096;BME280;1558;42.700;23.360;2023-07-28T13:08:35;95056.13;;;32.81;27.92
3096;BME280;1558;42.700;23.360;2023-07-28T13:11:07;95038.22;;;32.73;28.01
3096;BME280;1558;42.700;23.360;2023-07-28T13:13:40;95055.28;;;32.90;27.85
3096;BME280;1558;42.700;23.360;2023-07-28T13:16:09;95050.75;;;32.92;28.09
3096;BME280;1558;42.700;23.360;2023-07-28T13:18:39;95039.75;;;33.18;27.97
3096;BME280;1558;42.700;23.360;2023-07-28T13:21:07;95016.19;;;33.24;27.80